This is the latest recevied weather packets stored in our database for station/object K0TNT-10. If no packets are shown the sender has not sent any weather packets the latest 10 day(s).
| Time | Temp. | Humidity | Pressure | Rain* | Wind** | Luminosity | Snow |
|---|---|---|---|---|---|---|---|
| 1777597243 | 15.56° C | 44% | 1017.5 hPa | 0 mm | - | - | - |
| 1777593619 | 16.67° C | 42% | 1017.1 hPa | 0 mm | - | - | - |
| 1777590004 | 17.22° C | 42% | 1017.1 hPa | 0 mm | - | - | - |
| 1777588211 | 18.33° C | 41% | 1017 hPa | 0 mm | - | - | - |
| 1777584664 | 19.44° C | 41% | 1016.8 hPa | 0 mm | - | - | - |
| 1777581919 | 19.44° C | 44% | 1017.1 hPa | 0 mm | - | - | - |
| 1777578322 | 19.44° C | 44% | 1017.4 hPa | 0 mm | - | - | - |
| 1777576536 | 18.33° C | 45% | 1017.6 hPa | 0 mm | - | - | - |
| 1777572057 | 18.33° C | 53% | 1018.3 hPa | 0 mm | - | - | - |
| 1777568423 | 16.11° C | 59% | 1019 hPa | 0 mm | - | - | - |
| 1777561256 | 13.33° C | 65% | 1019.8 hPa | 0 mm | - | - | - |
| 1777559402 | 13.33° C | 66% | 1019.6 hPa | 0 mm | - | - | - |
| 1777555808 | 10° C | 88% | 1019.6 hPa | 0 mm | - | - | - |
| 1777553140 | 7.78° C | 95% | 1019.1 hPa | 0 mm | - | - | - |
| 1777546848 | 5° C | 94% | 1018.9 hPa | 0 mm | - | - | - |
| 1777545921 | 5.56° C | 94% | 1019.2 hPa | 0 mm | - | - | - |
| 1777541447 | 6.11° C | 93% | 1019.4 hPa | 0 mm | - | - | - |
| 1777538754 | 6.11° C | 93% | 1018.8 hPa | 0 mm | - | - | - |
| 1777537849 | 6.11° C | 93% | 1018.7 hPa | 0 mm | - | - | - |
| 1777536057 | 6.67° C | 92% | 1018.5 hPa | 0 mm | - | - | - |
| 1777534236 | 7.22° C | 91% | 1018.8 hPa | 0 mm | - | - | - |
| 1777526117 | 7.78° C | 88% | 1019.9 hPa | 0 mm | - | - | - |
| 1777525211 | 8.33° C | 87% | 1019.9 hPa | 0 mm | - | - | - |
| 1777518016 | 10° C | 80% | 1019.7 hPa | 0 mm | - | - | - |
| 1777517152 | 10° C | 78% | 1019.5 hPa | 0 mm | - | - | - |
* Rain latest hour (hover to see other rain measurements)
** Current wind speed in m/s (hover to see current wind gust speed)